Aviation Digital Data Service (ADDS)

Output produced by METARs form (1627 UTC 22 June 2017)
found at http://aviationweather.gov/adds/metars/
 
KRIC 221128Z 2212/2312 21006KT P6SM SCT120 BKN250 
     FM221400 21010KT P6SM SCT250 
     FM222300 22008KT P6SM BKN200 
     FM230900 22006KT P6SM VCSH OVC080